sensor_id;sensor_type;location;lat;lon;timestamp;P1;durP1;ratioP1;P2;durP2;ratioP2
84115;SDS011;74211;52.234;9.860;2024-02-15T00:00:21;16.15;;;8.02;;
84115;SDS011;74211;52.234;9.860;2024-02-15T00:02:54;12.07;;;8.07;;
84115;SDS011;74211;52.234;9.860;2024-02-15T00:05:25;14.63;;;8.80;;
84115;SDS011;74211;52.234;9.860;2024-02-15T00:07:55;13.80;;;9.07;;
84115;SDS011;74211;52.234;9.860;2024-02-15T00:10:25;14.38;;;8.98;;
84115;SDS011;74211;52.234;9.860;2024-02-15T00:12:58;17.33;;;9.95;;
84115;SDS011;74211;52.234;9.860;2024-02-15T00:15:28;14.98;;;9.30;;
84115;SDS011;74211;52.234;9.860;2024-02-15T00:17:58;14.30;;;8.95;;
84115;SDS011;74211;52.234;9.860;2024-02-15T00:20:30;18.40;;;10.75;;
84115;SDS011;74211;52.234;9.860;2024-02-15T00:23:00;14.05;;;9.40;;
84115;SDS011;74211;52.234;9.860;2024-02-15T00:25:31;19.30;;;10.57;;
84115;SDS011;74211;52.234;9.860;2024-02-15T00:28:04;14.77;;;9.07;;
84115;SDS011;74211;52.234;9.860;2024-02-15T00:30:34;15.00;;;10.27;;
84115;SDS011;74211;52.234;9.860;2024-02-15T00:33:04;12.48;;;8.55;;
84115;SDS011;74211;52.234;9.860;2024-02-15T00:35:35;15.45;;;9.57;;
84115;SDS011;74211;52.234;9.860;2024-02-15T00:38:06;13.48;;;9.50;;
84115;SDS011;74211;52.234;9.860;2024-02-15T00:40:36;14.00;;;8.88;;
84115;SDS011;74211;52.234;9.860;2024-02-15T00:43:09;14.52;;;9.40;;
84115;SDS011;74211;52.234;9.860;2024-02-15T00:45:39;16.73;;;10.98;;
84115;SDS011;74211;52.234;9.860;2024-02-15T00:48:09;17.20;;;10.02;;
84115;SDS011;74211;52.234;9.860;2024-02-15T00:50:40;24.50;;;10.63;;
84115;SDS011;74211;52.234;9.860;2024-02-15T00:53:10;14.35;;;9.07;;
84115;SDS011;74211;52.234;9.860;2024-02-15T00:55:40;14.65;;;8.98;;
84115;SDS011;74211;52.234;9.860;2024-02-15T00:58:12;17.15;;;11.18;;
84115;SDS011;74211;52.234;9.860;2024-02-15T01:00:42;16.55;;;10.63;;
84115;SDS011;74211;52.234;9.860;2024-02-15T01:03:12;18.30;;;9.20;;
84115;SDS011;74211;52.234;9.860;2024-02-15T01:05:46;17.42;;;9.90;;
84115;SDS011;74211;52.234;9.860;2024-02-15T01:08:16;17.13;;;10.93;;
84115;SDS011;74211;52.234;9.860;2024-02-15T01:10:47;14.95;;;10.23;;
84115;SDS011;74211;52.234;9.860;2024-02-15T01:13:19;16.60;;;9.80;;
84115;SDS011;74211;52.234;9.860;2024-02-15T01:15:50;14.52;;;9.20;;
84115;SDS011;74211;52.234;9.860;2024-02-15T01:18:20;13.93;;;8.98;;
84115;SDS011;74211;52.234;9.860;2024-02-15T01:20:50;14.18;;;9.50;;
84115;SDS011;74211;52.234;9.860;2024-02-15T01:23:21;15.73;;;9.27;;
84115;SDS011;74211;52.234;9.860;2024-02-15T01:25:52;14.43;;;8.68;;
84115;SDS011;74211;52.234;9.860;2024-02-15T01:28:25;14.32;;;9.07;;
84115;SDS011;74211;52.234;9.860;2024-02-15T01:30:55;13.38;;;8.68;;
84115;SDS011;74211;52.234;9.860;2024-02-15T01:33:25;12.30;;;7.80;;
84115;SDS011;74211;52.234;9.860;2024-02-15T01:35:56;15.30;;;9.18;;
84115;SDS011;74211;52.234;9.860;2024-02-15T01:38:25;12.38;;;8.32;;
84115;SDS011;74211;52.234;9.860;2024-02-15T01:40:56;11.77;;;8.43;;
84115;SDS011;74211;52.234;9.860;2024-02-15T01:43:28;12.70;;;7.93;;
84115;SDS011;74211;52.234;9.860;2024-02-15T01:45:58;14.07;;;8.93;;
84115;SDS011;74211;52.234;9.860;2024-02-15T01:48:30;13.20;;;8.27;;
84115;SDS011;74211;52.234;9.860;2024-02-15T01:51:00;19.25;;;9.13;;
84115;SDS011;74211;52.234;9.860;2024-02-15T01:53:29;13.48;;;8.73;;
84115;SDS011;74211;52.234;9.860;2024-02-15T01:55:59;12.07;;;7.88;;
84115;SDS011;74211;52.234;9.860;2024-02-15T01:58:32;10.45;;;7.38;;
84115;SDS011;74211;52.234;9.860;2024-02-15T02:01:03;13.45;;;8.52;;
84115;SDS011;74211;52.234;9.860;2024-02-15T02:03:34;13.50;;;7.95;;
84115;SDS011;74211;52.234;9.860;2024-02-15T02:06:05;12.57;;;7.85;;
84115;SDS011;74211;52.234;9.860;2024-02-15T02:08:35;14.52;;;9.75;;
84115;SDS011;74211;52.234;9.860;2024-02-15T02:11:05;11.43;;;7.25;;
84115;SDS011;74211;52.234;9.860;2024-02-15T02:13:39;12.23;;;7.82;;
84115;SDS011;74211;52.234;9.860;2024-02-15T02:16:23;14.05;;;7.30;;
84115;SDS011;74211;52.234;9.860;2024-02-15T02:18:54;9.80;;;7.00;;
84115;SDS011;74211;52.234;9.860;2024-02-15T02:21:25;11.00;;;7.05;;
84115;SDS011;74211;52.234;9.860;2024-02-15T02:23:57;8.73;;;5.43;;
84115;SDS011;74211;52.234;9.860;2024-02-15T02:26:30;10.05;;;5.95;;
84115;SDS011;74211;52.234;9.860;2024-02-15T02:29:01;10.18;;;6.30;;
84115;SDS011;74211;52.234;9.860;2024-02-15T02:31:32;9.75;;;5.75;;
84115;SDS011;74211;52.234;9.860;2024-02-15T02:34:02;8.63;;;5.95;;
84115;SDS011;74211;52.234;9.860;2024-02-15T02:36:34;8.60;;;6.03;;
84115;SDS011;74211;52.234;9.860;2024-02-15T02:39:05;9.63;;;5.72;;
84115;SDS011;74211;52.234;9.860;2024-02-15T02:41:37;9.00;;;5.80;;
84115;SDS011;74211;52.234;9.860;2024-02-15T02:44:07;7.28;;;5.13;;
84115;SDS011;74211;52.234;9.860;2024-02-15T02:46:37;6.72;;;5.35;;
84115;SDS011;74211;52.234;9.860;2024-02-15T02:49:07;6.88;;;4.78;;
84115;SDS011;74211;52.234;9.860;2024-02-15T02:51:37;6.43;;;5.00;;
84115;SDS011;74211;52.234;9.860;2024-02-15T02:54:08;9.70;;;6.28;;
84115;SDS011;74211;52.234;9.860;2024-02-15T02:56:41;8.02;;;5.28;;
84115;SDS011;74211;52.234;9.860;2024-02-15T02:59:11;10.15;;;5.75;;
84115;SDS011;74211;52.234;9.860;2024-02-15T03:01:43;7.60;;;6.15;;
84115;SDS011;74211;52.234;9.860;2024-02-15T03:04:14;9.13;;;6.07;;
84115;SDS011;74211;52.234;9.860;2024-02-15T03:06:44;8.18;;;4.80;;
84115;SDS011;74211;52.234;9.860;2024-02-15T03:09:14;7.35;;;5.38;;
84115;SDS011;74211;52.234;9.860;2024-02-15T03:11:47;7.00;;;5.72;;
84115;SDS011;74211;52.234;9.860;2024-02-15T03:14:17;7.80;;;6.35;;
84115;SDS011;74211;52.234;9.860;2024-02-15T03:16:47;10.00;;;5.30;;
84115;SDS011;74211;52.234;9.860;2024-02-15T03:19:17;7.75;;;5.35;;
84115;SDS011;74211;52.234;9.860;2024-02-15T03:21:49;7.18;;;5.00;;
84115;SDS011;74211;52.234;9.860;2024-02-15T03:24:20;7.57;;;4.85;;
84115;SDS011;74211;52.234;9.860;2024-02-15T03:26:52;6.22;;;5.40;;
84115;SDS011;74211;52.234;9.860;2024-02-15T03:29:22;7.05;;;4.78;;
84115;SDS011;74211;52.234;9.860;2024-02-15T03:31:52;8.48;;;5.07;;
84115;SDS011;74211;52.234;9.860;2024-02-15T03:34:22;8.70;;;4.90;;
84115;SDS011;74211;52.234;9.860;2024-02-15T03:36:53;6.60;;;5.47;;
84115;SDS011;74211;52.234;9.860;2024-02-15T03:39:22;7.80;;;5.55;;
84115;SDS011;74211;52.234;9.860;2024-02-15T03:41:55;7.10;;;5.10;;
84115;SDS011;74211;52.234;9.860;2024-02-15T03:44:25;7.30;;;4.68;;
84115;SDS011;74211;52.234;9.860;2024-02-15T03:46:58;7.18;;;5.50;;
84115;SDS011;74211;52.234;9.860;2024-02-15T03:49:28;8.27;;;4.88;;
84115;SDS011;74211;52.234;9.860;2024-02-15T03:51:58;7.57;;;5.28;;
84115;SDS011;74211;52.234;9.860;2024-02-15T03:54:29;7.22;;;5.57;;
84115;SDS011;74211;52.234;9.860;2024-02-15T03:57:01;6.68;;;4.72;;
84115;SDS011;74211;52.234;9.860;2024-02-15T03:59:33;8.23;;;6.75;;
84115;SDS011;74211;52.234;9.860;2024-02-15T04:02:04;8.90;;;4.72;;
84115;SDS011;74211;52.234;9.860;2024-02-15T04:04:39;7.00;;;5.40;;
84115;SDS011;74211;52.234;9.860;2024-02-15T04:07:10;7.28;;;4.63;;
84115;SDS011;74211;52.234;9.860;2024-02-15T04:09:40;6.75;;;4.97;;
84115;SDS011;74211;52.234;9.860;2024-02-15T04:12:12;7.22;;;4.38;;
84115;SDS011;74211;52.234;9.860;2024-02-15T04:14:43;6.50;;;4.85;;
84115;SDS011;74211;52.234;9.860;2024-02-15T04:17:14;6.40;;;3.90;;
84115;SDS011;74211;52.234;9.860;2024-02-15T04:19:48;6.10;;;4.30;;
84115;SDS011;74211;52.234;9.860;2024-02-15T04:22:20;5.85;;;4.00;;
84115;SDS011;74211;52.234;9.860;2024-02-15T04:24:50;5.93;;;3.75;;
84115;SDS011;74211;52.234;9.860;2024-02-15T04:27:26;5.88;;;3.83;;
84115;SDS011;74211;52.234;9.860;2024-02-15T04:29:56;4.80;;;3.42;;
84115;SDS011;74211;52.234;9.860;2024-02-15T04:32:26;7.75;;;4.35;;
84115;SDS011;74211;52.234;9.860;2024-02-15T04:35:01;5.90;;;3.83;;
84115;SDS011;74211;52.234;9.860;2024-02-15T04:37:35;6.13;;;4.07;;
84115;SDS011;74211;52.234;9.860;2024-02-15T04:40:06;6.13;;;4.00;;
84115;SDS011;74211;52.234;9.860;2024-02-15T04:42:40;7.50;;;4.78;;
84115;SDS011;74211;52.234;9.860;2024-02-15T04:45:12;6.53;;;4.40;;
84115;SDS011;74211;52.234;9.860;2024-02-15T04:47:43;6.90;;;4.63;;
84115;SDS011;74211;52.234;9.860;2024-02-15T04:50:17;7.10;;;5.45;;
84115;SDS011;74211;52.234;9.860;2024-02-15T04:52:48;9.15;;;6.78;;
84115;SDS011;74211;52.234;9.860;2024-02-15T04:55:18;6.28;;;4.68;;
84115;SDS011;74211;52.234;9.860;2024-02-15T04:57:52;8.02;;;5.03;;
84115;SDS011;74211;52.234;9.860;2024-02-15T05:00:23;6.63;;;4.45;;
84115;SDS011;74211;52.234;9.860;2024-02-15T05:02:55;6.90;;;4.40;;
84115;SDS011;74211;52.234;9.860;2024-02-15T05:05:25;6.22;;;5.07;;
84115;SDS011;74211;52.234;9.860;2024-02-15T05:07:56;6.68;;;3.88;;
84115;SDS011;74211;52.234;9.860;2024-02-15T05:10:28;5.57;;;4.15;;
84115;SDS011;74211;52.234;9.860;2024-02-15T05:13:00;6.03;;;4.25;;
84115;SDS011;74211;52.234;9.860;2024-02-15T05:15:30;6.65;;;4.50;;
84115;SDS011;74211;52.234;9.860;2024-02-15T05:18:00;6.88;;;5.15;;
84115;SDS011;74211;52.234;9.860;2024-02-15T05:20:31;6.70;;;4.47;;
84115;SDS011;74211;52.234;9.860;2024-02-15T05:23:01;6.93;;;4.70;;
84115;SDS011;74211;52.234;9.860;2024-02-15T05:25:31;6.03;;;4.45;;
84115;SDS011;74211;52.234;9.860;2024-02-15T05:28:05;8.73;;;6.60;;
84115;SDS011;74211;52.234;9.860;2024-02-15T05:30:35;7.50;;;4.55;;
84115;SDS011;74211;52.234;9.860;2024-02-15T05:33:06;11.43;;;5.38;;
84115;SDS011;74211;52.234;9.860;2024-02-15T05:35:37;7.57;;;4.75;;
84115;SDS011;74211;52.234;9.860;2024-02-15T05:38:13;6.68;;;4.72;;
84115;SDS011;74211;52.234;9.860;2024-02-15T05:40:43;7.03;;;4.53;;
84115;SDS011;74211;52.234;9.860;2024-02-15T05:43:17;9.13;;;5.10;;
84115;SDS011;74211;52.234;9.860;2024-02-15T05:45:47;10.82;;;6.15;;
84115;SDS011;74211;52.234;9.860;2024-02-15T05:48:19;9.25;;;5.82;;
84115;SDS011;74211;52.234;9.860;2024-02-15T05:50:49;9.43;;;6.10;;
84115;SDS011;74211;52.234;9.860;2024-02-15T05:53:21;10.07;;;6.40;;
84115;SDS011;74211;52.234;9.860;2024-02-15T05:55:51;10.02;;;6.20;;
84115;SDS011;74211;52.234;9.860;2024-02-15T05:58:23;13.05;;;7.90;;
84115;SDS011;74211;52.234;9.860;2024-02-15T06:00:53;12.77;;;7.38;;
84115;SDS011;74211;52.234;9.860;2024-02-15T06:03:28;11.02;;;6.85;;
84115;SDS011;74211;52.234;9.860;2024-02-15T06:05:58;11.65;;;8.55;;
84115;SDS011;74211;52.234;9.860;2024-02-15T06:08:29;12.43;;;7.00;;
84115;SDS011;74211;52.234;9.860;2024-02-15T06:10:59;9.32;;;6.72;;
84115;SDS011;74211;52.234;9.860;2024-02-15T06:13:31;12.52;;;7.03;;
84115;SDS011;74211;52.234;9.860;2024-02-15T06:16:01;9.85;;;6.30;;
84115;SDS011;74211;52.234;9.860;2024-02-15T06:18:35;11.27;;;7.03;;
84115;SDS011;74211;52.234;9.860;2024-02-15T06:21:06;9.32;;;5.97;;
84115;SDS011;74211;52.234;9.860;2024-02-15T06:23:36;11.35;;;7.10;;
84115;SDS011;74211;52.234;9.860;2024-02-15T06:26:05;12.75;;;6.90;;
84115;SDS011;74211;52.234;9.860;2024-02-15T06:28:39;9.65;;;6.18;;
84115;SDS011;74211;52.234;9.860;2024-02-15T06:31:24;11.32;;;6.80;;
84115;SDS011;74211;52.234;9.860;2024-02-15T06:34:06;10.23;;;6.78;;
84115;SDS011;74211;52.234;9.860;2024-02-15T06:36:59;9.90;;;6.57;;
84115;SDS011;74211;52.234;9.860;2024-02-15T06:39:41;9.55;;;7.35;;
84115;SDS011;74211;52.234;9.860;2024-02-15T06:42:12;12.32;;;6.28;;
84115;SDS011;74211;52.234;9.860;2024-02-15T06:44:48;9.68;;;6.57;;
84115;SDS011;74211;52.234;9.860;2024-02-15T06:47:18;9.43;;;5.85;;
84115;SDS011;74211;52.234;9.860;2024-02-15T06:49:48;11.30;;;6.95;;
84115;SDS011;74211;52.234;9.860;2024-02-15T06:52:20;11.18;;;7.15;;
84115;SDS011;74211;52.234;9.860;2024-02-15T06:54:50;13.88;;;6.55;;
84115;SDS011;74211;52.234;9.860;2024-02-15T06:57:21;11.25;;;6.35;;
84115;SDS011;74211;52.234;9.860;2024-02-15T06:59:53;9.65;;;7.25;;
84115;SDS011;74211;52.234;9.860;2024-02-15T07:02:23;11.35;;;6.78;;
84115;SDS011;74211;52.234;9.860;2024-02-15T07:04:53;12.70;;;6.82;;
84115;SDS011;74211;52.234;9.860;2024-02-15T07:07:24;13.85;;;7.53;;
84115;SDS011;74211;52.234;9.860;2024-02-15T07:09:54;10.07;;;7.00;;
84115;SDS011;74211;52.234;9.860;2024-02-15T07:12:24;14.60;;;8.00;;
84115;SDS011;74211;52.234;9.860;2024-02-15T07:14:58;12.07;;;6.45;;
84115;SDS011;74211;52.234;9.860;2024-02-15T07:17:28;10.43;;;7.18;;
84115;SDS011;74211;52.234;9.860;2024-02-15T07:19:58;13.90;;;7.80;;
84115;SDS011;74211;52.234;9.860;2024-02-15T07:22:30;12.82;;;7.57;;
84115;SDS011;74211;52.234;9.860;2024-02-15T07:25:02;11.77;;;7.60;;
84115;SDS011;74211;52.234;9.860;2024-02-15T07:27:32;10.90;;;7.22;;
84115;SDS011;74211;52.234;9.860;2024-02-15T07:30:05;12.18;;;8.48;;
84115;SDS011;74211;52.234;9.860;2024-02-15T07:32:36;11.68;;;7.80;;
84115;SDS011;74211;52.234;9.860;2024-02-15T07:35:06;15.23;;;7.80;;
84115;SDS011;74211;52.234;9.860;2024-02-15T07:37:39;13.30;;;8.27;;
84115;SDS011;74211;52.234;9.860;2024-02-15T07:40:09;12.73;;;6.63;;
84115;SDS011;74211;52.234;9.860;2024-02-15T07:42:40;10.20;;;6.40;;
84115;SDS011;74211;52.234;9.860;2024-02-15T07:45:13;13.35;;;7.43;;
84115;SDS011;74211;52.234;9.860;2024-02-15T07:47:44;12.07;;;6.82;;
84115;SDS011;74211;52.234;9.860;2024-02-15T07:50:16;10.52;;;7.18;;
84115;SDS011;74211;52.234;9.860;2024-02-15T07:52:50;10.60;;;7.68;;
84115;SDS011;74211;52.234;9.860;2024-02-15T07:55:20;11.98;;;7.03;;
84115;SDS011;74211;52.234;9.860;2024-02-15T07:57:51;9.77;;;5.82;;
84115;SDS011;74211;52.234;9.860;2024-02-15T08:00:25;9.18;;;6.25;;
84115;SDS011;74211;52.234;9.860;2024-02-15T08:02:56;12.73;;;6.28;;
84115;SDS011;74211;52.234;9.860;2024-02-15T08:05:27;13.05;;;6.85;;
84115;SDS011;74211;52.234;9.860;2024-02-15T08:07:57;7.68;;;4.93;;
84115;SDS011;74211;52.234;9.860;2024-02-15T08:10:27;7.18;;;4.75;;
84115;SDS011;74211;52.234;9.860;2024-02-15T08:12:57;7.65;;;4.80;;
84115;SDS011;74211;52.234;9.860;2024-02-15T08:15:29;10.75;;;4.70;;
84115;SDS011;74211;52.234;9.860;2024-02-15T08:17:59;10.38;;;4.50;;
84115;SDS011;74211;52.234;9.860;2024-02-15T08:20:32;7.70;;;4.18;;
84115;SDS011;74211;52.234;9.860;2024-02-15T08:23:03;8.30;;;3.75;;
84115;SDS011;74211;52.234;9.860;2024-02-15T08:25:33;9.20;;;3.88;;
84115;SDS011;74211;52.234;9.860;2024-02-15T08:28:04;6.10;;;3.90;;
84115;SDS011;74211;52.234;9.860;2024-02-15T08:30:39;5.03;;;3.33;;
84115;SDS011;74211;52.234;9.860;2024-02-15T08:33:08;7.32;;;3.72;;
84115;SDS011;74211;52.234;9.860;2024-02-15T08:35:40;4.60;;;2.65;;
84115;SDS011;74211;52.234;9.860;2024-02-15T08:38:11;4.00;;;2.47;;
84115;SDS011;74211;52.234;9.860;2024-02-15T08:40:41;4.10;;;2.60;;
84115;SDS011;74211;52.234;9.860;2024-02-15T08:43:12;10.95;;;2.92;;
84115;SDS011;74211;52.234;9.860;2024-02-15T08:45:48;9.57;;;2.55;;
84115;SDS011;74211;52.234;9.860;2024-02-15T08:48:19;4.03;;;2.40;;
84115;SDS011;74211;52.234;9.860;2024-02-15T08:50:50;5.85;;;2.58;;
84115;SDS011;74211;52.234;9.860;2024-02-15T08:53:20;3.00;;;1.83;;
84115;SDS011;74211;52.234;9.860;2024-02-15T08:55:51;3.40;;;2.88;;
84115;SDS011;74211;52.234;9.860;2024-02-15T08:58:21;4.03;;;2.50;;
84115;SDS011;74211;52.234;9.860;2024-02-15T09:00:54;4.40;;;2.50;;
84115;SDS011;74211;52.234;9.860;2024-02-15T09:03:24;6.50;;;2.88;;
84115;SDS011;74211;52.234;9.860;2024-02-15T09:05:54;3.00;;;2.50;;
84115;SDS011;74211;52.234;9.860;2024-02-15T09:08:26;3.67;;;2.50;;
84115;SDS011;74211;52.234;9.860;2024-02-15T09:10:56;4.07;;;2.08;;
84115;SDS011;74211;52.234;9.860;2024-02-15T09:13:28;4.88;;;2.28;;
84115;SDS011;74211;52.234;9.860;2024-02-15T09:16:01;3.67;;;2.70;;
84115;SDS011;74211;52.234;9.860;2024-02-15T09:18:31;2.97;;;2.03;;
84115;SDS011;74211;52.234;9.860;2024-02-15T09:21:02;3.35;;;2.20;;
84115;SDS011;74211;52.234;9.860;2024-02-15T09:23:32;3.13;;;2.00;;
84115;SDS011;74211;52.234;9.860;2024-02-15T09:26:02;4.40;;;2.25;;
84115;SDS011;74211;52.234;9.860;2024-02-15T09:28:32;3.90;;;2.53;;
84115;SDS011;74211;52.234;9.860;2024-02-15T09:31:05;4.80;;;3.08;;
84115;SDS011;74211;52.234;9.860;2024-02-15T09:33:38;4.63;;;2.47;;
84115;SDS011;74211;52.234;9.860;2024-02-15T09:36:08;3.35;;;2.63;;
84115;SDS011;74211;52.234;9.860;2024-02-15T09:38:39;4.00;;;2.17;;
84115;SDS011;74211;52.234;9.860;2024-02-15T09:41:09;4.30;;;3.03;;
84115;SDS011;74211;52.234;9.860;2024-02-15T09:43:39;5.60;;;2.30;;
84115;SDS011;74211;52.234;9.860;2024-02-15T09:46:12;3.47;;;2.03;;
84115;SDS011;74211;52.234;9.860;2024-02-15T09:48:44;3.15;;;1.83;;
84115;SDS011;74211;52.234;9.860;2024-02-15T09:51:26;6.57;;;2.70;;
84115;SDS011;74211;52.234;9.860;2024-02-15T09:53:57;3.13;;;2.20;;
84115;SDS011;74211;52.234;9.860;2024-02-15T09:56:28;4.57;;;2.10;;
84115;SDS011;74211;52.234;9.860;2024-02-15T09:59:00;3.97;;;2.35;;
84115;SDS011;74211;52.234;9.860;2024-02-15T10:01:34;5.10;;;2.17;;
84115;SDS011;74211;52.234;9.860;2024-02-15T10:04:07;5.78;;;2.22;;
84115;SDS011;74211;52.234;9.860;2024-02-15T10:06:42;2.78;;;2.00;;
84115;SDS011;74211;52.234;9.860;2024-02-15T10:09:25;4.40;;;2.10;;
84115;SDS011;74211;52.234;9.860;2024-02-15T10:11:59;5.50;;;4.65;;
84115;SDS011;74211;52.234;9.860;2024-02-15T10:17:07;3.80;;;2.20;;
84115;SDS011;74211;52.234;9.860;2024-02-15T10:19:39;4.90;;;2.60;;
84115;SDS011;74211;52.234;9.860;2024-02-15T10:22:11;3.85;;;2.40;;
84115;SDS011;74211;52.234;9.860;2024-02-15T10:24:39;4.85;;;2.30;;
84115;SDS011;74211;52.234;9.860;2024-02-15T10:27:09;3.28;;;2.63;;
84115;SDS011;74211;52.234;9.860;2024-02-15T10:29:40;2.63;;;2.03;;
84115;SDS011;74211;52.234;9.860;2024-02-15T10:32:13;3.83;;;2.03;;
84115;SDS011;74211;52.234;9.860;2024-02-15T10:34:46;5.47;;;3.30;;
84115;SDS011;74211;52.234;9.860;2024-02-15T10:37:16;3.95;;;2.45;;
84115;SDS011;74211;52.234;9.860;2024-02-15T10:39:47;3.65;;;2.40;;
84115;SDS011;74211;52.234;9.860;2024-02-15T10:42:34;4.28;;;2.30;;
84115;SDS011;74211;52.234;9.860;2024-02-15T10:45:07;2.85;;;2.50;;
84115;SDS011;74211;52.234;9.860;2024-02-15T10:47:41;5.43;;;2.70;;
84115;SDS011;74211;52.234;9.860;2024-02-15T10:50:12;7.22;;;2.58;;
84115;SDS011;74211;52.234;9.860;2024-02-15T10:52:44;5.05;;;2.67;;
84115;SDS011;74211;52.234;9.860;2024-02-15T10:55:22;7.38;;;2.60;;
84115;SDS011;74211;52.234;9.860;2024-02-15T10:58:05;5.30;;;3.10;;
84115;SDS011;74211;52.234;9.860;2024-02-15T11:00:36;4.68;;;2.78;;
84115;SDS011;74211;52.234;9.860;2024-02-15T11:03:16;3.83;;;2.55;;
84115;SDS011;74211;52.234;9.860;2024-02-15T11:05:53;4.13;;;3.53;;
84115;SDS011;74211;52.234;9.860;2024-02-15T11:08:29;7.80;;;2.92;;
84115;SDS011;74211;52.234;9.860;2024-02-15T11:11:00;2.60;;;2.22;;
84115;SDS011;74211;52.234;9.860;2024-02-15T11:13:31;5.03;;;3.30;;
84115;SDS011;74211;52.234;9.860;2024-02-15T11:16:01;8.35;;;2.67;;
84115;SDS011;74211;52.234;9.860;2024-02-15T11:18:47;4.13;;;2.65;;
84115;SDS011;74211;52.234;9.860;2024-02-15T11:21:20;4.22;;;2.65;;
84115;SDS011;74211;52.234;9.860;2024-02-15T11:24:27;4.13;;;2.42;;
84115;SDS011;74211;52.234;9.860;2024-02-15T11:26:59;3.83;;;2.28;;
84115;SDS011;74211;52.234;9.860;2024-02-15T11:29:47;3.50;;;2.60;;
84115;SDS011;74211;52.234;9.860;2024-02-15T11:32:38;4.13;;;2.30;;
84115;SDS011;74211;52.234;9.860;2024-02-15T11:35:18;4.88;;;2.55;;
84115;SDS011;74211;52.234;9.860;2024-02-15T11:37:52;6.03;;;2.65;;
84115;SDS011;74211;52.234;9.860;2024-02-15T11:40:21;4.65;;;2.83;;
84115;SDS011;74211;52.234;9.860;2024-02-15T11:42:54;6.07;;;3.42;;
84115;SDS011;74211;52.234;9.860;2024-02-15T11:45:26;5.22;;;2.53;;
84115;SDS011;74211;52.234;9.860;2024-02-15T11:48:01;6.50;;;3.40;;
84115;SDS011;74211;52.234;9.860;2024-02-15T11:50:36;7.22;;;3.03;;
84115;SDS011;74211;52.234;9.860;2024-02-15T11:53:07;6.93;;;2.33;;
84115;SDS011;74211;52.234;9.860;2024-02-15T11:55:39;3.13;;;2.50;;
84115;SDS011;74211;52.234;9.860;2024-02-15T11:58:11;3.03;;;2.17;;
84115;SDS011;74211;52.234;9.860;2024-02-15T12:00:58;3.92;;;2.20;;
84115;SDS011;74211;52.234;9.860;2024-02-15T12:03:41;5.63;;;2.65;;
84115;SDS011;74211;52.234;9.860;2024-02-15T12:06:35;2.90;;;2.60;;
84115;SDS011;74211;52.234;9.860;2024-02-15T12:09:18;2.92;;;1.95;;
84115;SDS011;74211;52.234;9.860;2024-02-15T12:12:00;3.60;;;1.92;;
84115;SDS011;74211;52.234;9.860;2024-02-15T12:14:43;3.25;;;2.30;;
84115;SDS011;74211;52.234;9.860;2024-02-15T12:17:26;7.05;;;3.10;;
84115;SDS011;74211;52.234;9.860;2024-02-15T12:20:09;3.53;;;2.05;;
84115;SDS011;74211;52.234;9.860;2024-02-15T12:22:43;3.65;;;2.35;;
84115;SDS011;74211;52.234;9.860;2024-02-15T12:25:17;4.70;;;2.72;;
84115;SDS011;74211;52.234;9.860;2024-02-15T12:27:52;4.53;;;2.10;;
84115;SDS011;74211;52.234;9.860;2024-02-15T12:30:23;3.85;;;3.30;;
84115;SDS011;74211;52.234;9.860;2024-02-15T12:32:53;5.43;;;2.30;;
84115;SDS011;74211;52.234;9.860;2024-02-15T12:35:40;3.72;;;2.35;;
84115;SDS011;74211;52.234;9.860;2024-02-15T12:38:14;3.83;;;2.00;;
84115;SDS011;74211;52.234;9.860;2024-02-15T12:40:45;2.67;;;2.00;;
84115;SDS011;74211;52.234;9.860;2024-02-15T12:43:15;6.45;;;1.98;;
84115;SDS011;74211;52.234;9.860;2024-02-15T12:45:45;4.88;;;2.20;;
84115;SDS011;74211;52.234;9.860;2024-02-15T12:48:15;3.95;;;2.30;;
84115;SDS011;74211;52.234;9.860;2024-02-15T12:50:46;3.20;;;2.33;;
84115;SDS011;74211;52.234;9.860;2024-02-15T12:53:23;5.47;;;2.67;;
84115;SDS011;74211;52.234;9.860;2024-02-15T12:55:53;4.25;;;2.55;;
84115;SDS011;74211;52.234;9.860;2024-02-15T12:58:24;3.33;;;2.15;;
84115;SDS011;74211;52.234;9.860;2024-02-15T13:00:56;5.88;;;2.55;;
84115;SDS011;74211;52.234;9.860;2024-02-15T13:03:28;2.65;;;2.15;;
84115;SDS011;74211;52.234;9.860;2024-02-15T13:05:58;4.30;;;2.20;;
84115;SDS011;74211;52.234;9.860;2024-02-15T13:08:30;2.95;;;2.25;;
84115;SDS011;74211;52.234;9.860;2024-02-15T13:11:01;5.55;;;2.20;;
84115;SDS011;74211;52.234;9.860;2024-02-15T13:13:32;8.50;;;2.25;;
84115;SDS011;74211;52.234;9.860;2024-02-15T13:16:02;4.03;;;3.00;;
84115;SDS011;74211;52.234;9.860;2024-02-15T13:18:33;6.43;;;2.17;;
84115;SDS011;74211;52.234;9.860;2024-02-15T13:21:05;5.53;;;2.60;;
84115;SDS011;74211;52.234;9.860;2024-02-15T13:23:39;3.42;;;2.17;;
84115;SDS011;74211;52.234;9.860;2024-02-15T13:26:09;3.88;;;2.20;;
84115;SDS011;74211;52.234;9.860;2024-02-15T13:28:40;3.65;;;2.20;;
84115;SDS011;74211;52.234;9.860;2024-02-15T13:31:11;4.63;;;2.15;;
84115;SDS011;74211;52.234;9.860;2024-02-15T13:33:41;3.75;;;2.30;;
84115;SDS011;74211;52.234;9.860;2024-02-15T13:36:11;4.18;;;2.70;;
84115;SDS011;74211;52.234;9.860;2024-02-15T13:38:45;6.63;;;2.53;;
84115;SDS011;74211;52.234;9.860;2024-02-15T13:41:18;3.00;;;2.05;;
84115;SDS011;74211;52.234;9.860;2024-02-15T13:43:48;3.35;;;2.20;;
84115;SDS011;74211;52.234;9.860;2024-02-15T13:46:18;4.05;;;2.15;;
84115;SDS011;74211;52.234;9.860;2024-02-15T13:48:48;8.32;;;2.85;;
84115;SDS011;74211;52.234;9.860;2024-02-15T13:51:18;3.55;;;2.53;;
84115;SDS011;74211;52.234;9.860;2024-02-15T13:53:51;5.63;;;2.40;;
84115;SDS011;74211;52.234;9.860;2024-02-15T13:56:23;4.53;;;2.70;;
84115;SDS011;74211;52.234;9.860;2024-02-15T13:58:53;3.42;;;2.00;;
84115;SDS011;74211;52.234;9.860;2024-02-15T14:01:28;3.30;;;2.08;;
84115;SDS011;74211;52.234;9.860;2024-02-15T14:03:58;3.13;;;2.30;;
84115;SDS011;74211;52.234;9.860;2024-02-15T14:06:28;3.15;;;1.92;;
84115;SDS011;74211;52.234;9.860;2024-02-15T14:09:00;4.28;;;2.70;;
84115;SDS011;74211;52.234;9.860;2024-02-15T14:11:32;3.95;;;2.05;;
84115;SDS011;74211;52.234;9.860;2024-02-15T14:14:02;4.80;;;2.35;;
84115;SDS011;74211;52.234;9.860;2024-02-15T14:16:32;5.43;;;1.92;;
84115;SDS011;74211;52.234;9.860;2024-02-15T14:19:02;4.47;;;2.60;;
84115;SDS011;74211;52.234;9.860;2024-02-15T14:21:33;4.72;;;2.05;;
84115;SDS011;74211;52.234;9.860;2024-02-15T14:24:08;3.70;;;1.83;;
84115;SDS011;74211;52.234;9.860;2024-02-15T14:26:39;4.18;;;2.05;;
84115;SDS011;74211;52.234;9.860;2024-02-15T14:29:09;3.33;;;1.85;;
84115;SDS011;74211;52.234;9.860;2024-02-15T14:31:41;3.90;;;2.13;;
84115;SDS011;74211;52.234;9.860;2024-02-15T14:34:23;4.13;;;2.00;;
84115;SDS011;74211;52.234;9.860;2024-02-15T14:36:53;3.42;;;1.70;;
84115;SDS011;74211;52.234;9.860;2024-02-15T14:39:27;3.40;;;1.90;;
84115;SDS011;74211;52.234;9.860;2024-02-15T14:41:57;6.05;;;2.53;;
84115;SDS011;74211;52.234;9.860;2024-02-15T14:44:27;3.83;;;2.10;;
84115;SDS011;74211;52.234;9.860;2024-02-15T14:46:57;2.83;;;2.22;;
84115;SDS011;74211;52.234;9.860;2024-02-15T14:49:27;2.35;;;2.03;;
84115;SDS011;74211;52.234;9.860;2024-02-15T14:51:57;4.38;;;2.58;;
84115;SDS011;74211;52.234;9.860;2024-02-15T14:54:30;3.20;;;1.90;;
84115;SDS011;74211;52.234;9.860;2024-02-15T14:57:00;4.40;;;2.22;;
84115;SDS011;74211;52.234;9.860;2024-02-15T14:59:31;3.50;;;1.98;;
84115;SDS011;74211;52.234;9.860;2024-02-15T15:02:02;3.15;;;2.17;;
84115;SDS011;74211;52.234;9.860;2024-02-15T15:04:38;6.18;;;2.72;;
84115;SDS011;74211;52.234;9.860;2024-02-15T15:07:36;5.63;;;2.97;;
84115;SDS011;74211;52.234;9.860;2024-02-15T15:10:21;3.63;;;2.20;;
84115;SDS011;74211;52.234;9.860;2024-02-15T15:13:04;6.32;;;2.38;;
84115;SDS011;74211;52.234;9.860;2024-02-15T15:15:34;4.53;;;2.92;;